logo
Rechercher aéroport 
image banner adimage banner adimage banner ad
image banner ad

YGBE - The Glebe

Situé à Mowbray, Australia

ICAO - , IATA -

Données fournies par Airmate  

Information générale

Coordonnées: S41°25'36" E147°8'41"
Élévation : feet MSL.
Variation magnétique : 14° East
Voir autres Aéroports à Tasmania

Données opérationnelles

Special qualification required
Heure actuelle UTC:
Heure actuelle locale:
Météo à : YMLT - Launceston ( 14 km )
METAR: YMLT 171800Z AUTO 19005KT 9999 // BKN037 03/02 Q1020 RF00.0/000.0
TAF: TAF YMLT 171731Z 1718/1818 19007KT 9999 MIFG SCT025 FM172300 17009KT 9999 NSW FEW030 PROB30 1720/1723 0300 FZFG
Voir NOTAMs / SUP AIP / TFR affectant cet aéroport [VIEW]
Fréquences de communication: [VIEW]

Pistes:

Coordonnées de l'aéroport

Adresse: Mowbray Australia

Vue satellite de YGBE